• Join FlightAware (Why Join?)
  • Login
  • US Flag 
10:12AM EST


 

Airport Tracker/Info


-or-


 

Live Flight TrackerFlight Track Log ✈ ASQ5958 ✈ 10-May-2013 ✈ KSYR - KORD

Flight Track Log - Related Links

Times and Time Zones

All times are in EDT time to prevent confusion due to time zone crossing. See the ASQ5958 flight status page for this flight to view local times or setup timezone preferences in your user account.

Time Position Orientation Groundspeed Altitude Reporting Facility
EDT Latitude Longitude Course Direction KTS MPH feet Rate Location/Type
03:01PM 43.1006 -76.0889 155° Southeast 167 192 1,100  Level Boston Center
03:02PM 43.0761 -76.0731 155° Southeast 171 197 2,500 2,100 Climbing Boston Center
03:03PM 43.0803 -76.1417 275° West 229 264 4,500 1,920 Climbing Boston Center
03:05PM 43.1653 -76.3161 304° West 253 291 8,900 1,920 Climbing Cleveland Center
03:06PM 43.1914 -76.4083 291° West 253 291 10,800 1,260 Climbing Cleveland Center
03:07PM 43.1931 -76.5136 271° West 265 305 11,500 1,140 Climbing Cleveland Center
03:08PM 43.1931 -76.6333 270° West 293 337 13,100 1,380 Climbing Cleveland Center
03:09PM 43.1933 -76.7642 270° West 308 354 14,300 1,200 Climbing Cleveland Center
03:10PM 43.1994 -76.8864 274° West 321 369 15,600 1,200 Climbing Cleveland Center
03:11PM 43.1992 -77.0117 270° West 326 375 16,700 1,020 Climbing Cleveland Center
03:12PM 43.1928 -77.1403 266° West 331 381 17,700 1,020 Climbing Cleveland Center
03:13PM 43.1922 -77.2714 270° West 338 389 18,800 1,080 Climbing Cleveland Center
03:14PM 43.1897 -77.4025 269° West 350 403 19,900 960 Climbing Cleveland Center
03:15PM 43.1872 -77.5394 269° West 350 403 20,800 780 Climbing Cleveland Center
03:16PM 43.1825 -77.6792 267° West 355 409 21,500 840 Climbing Cleveland Center
03:17PM 43.1775 -77.8189 267° West 367 422 22,500 1,140 Climbing Cleveland Center
03:18PM 43.1742 -77.9442 268° West 372 428 23,800 1,200 Climbing Cleveland Center
03:19PM 43.1708 -78.0811 268° West 372 428 25,000 1,200 Climbing Cleveland Center
03:20PM 43.1675 -78.2122 268° West 362 417 26,200 1,200 Climbing Cleveland Center
03:21PM 43.1617 -78.3406 266° West 351 404 27,500 1,200 Climbing Cleveland Center
03:22PM 43.1578 -78.4686 268° West 346 398 28,600 960 Climbing Cleveland Center
03:23PM 43.1539 -78.5939 268° West 346 398 29,500 900 Climbing Cleveland Center
03:24PM 43.1497 -78.7222 267° West 346 398 30,500 1,140 Climbing Cleveland Center
03:25PM 43.1475 -78.8447 269° West 339 390 31,800 1,500 Climbing Cleveland Center
03:26PM 43.1428 -78.9614 267° West 323 372 33,500 1,440 Climbing Cleveland Center
03:27PM 43.1333 -79.0833 264° West 300 345 34,900 1,020 Climbing Toronto Center
03:28PM 43.1167 -79.2000 259° West 290 334 35,700 540 Climbing Toronto Center
03:29PM 43.1167 -79.2833 270° West 290 334 36,000 120 Climbing Toronto Center
03:30PM 43.1167 -79.4333 270° West 310 357 36,000  Level Toronto Center
03:31PM 43.1000 -79.5500 259° West 330 380 36,000  Level Toronto Center
03:32PM 43.1000 -79.6833 270° West 340 391 36,000  Level Toronto Center
03:33PM 43.1000 -79.8167 270° West 360 414 36,000  Level Toronto Center
03:34PM 43.0833 -79.9500 260° West 370 426 36,000  Level Toronto Center
03:35PM 43.0833 -80.0833 270° West 370 426 36,000  Level Toronto Center
03:36PM 43.0833 -80.2500 270° West 360 414 36,000  Level Toronto Center
03:37PM 43.0667 -80.3667 259° West 360 414 36,000  Level Toronto Center
03:38PM 43.0667 -80.5000 270° West 360 414 36,000  Level Toronto Center
03:39PM 43.0667 -80.6333 270° West 360 414 36,000  Level Toronto Center
03:40PM 43.0500 -80.7667 260° West 360 414 36,000  Level Toronto Center
03:41PM 43.0333 -80.9167 261° West 360 414 36,000  Level Toronto Center
03:42PM 43.0167 -81.0500 260° West 360 414 36,000  Level Toronto Center
03:43PM 43.0167 -81.1833 270° West 350 403 36,000  Level Toronto Center
03:44PM 43.0167 -81.3167 270° West 360 414 36,000  Level Toronto Center
03:45PM 43.0167 -81.4500 270° West 360 414 36,000  Level Toronto Center
03:46PM 43.0167 -81.6000 270° West 360 414 36,000  Level Toronto Center
03:47PM 43.0167 -81.7333 270° West 360 414 36,000  Level Toronto Center
03:48PM 43.0167 -81.8667 270° West 360 414 36,000  Level Toronto Center
03:49PM 43.0000 -82.0000 260° West 370 426 36,000  Level Toronto Center
03:50PM 43.0000 -82.1333 270° West 370 426 36,000  Level Toronto Center
03:51PM 43.0000 -82.3000 270° West 370 426 36,000  Level Toronto Center
03:52PM 43.0000 -82.4167 270° West 360 414 36,000  Level Toronto Center
03:53PM 43.0000 -82.5500 270° West 360 414 36,000 -120 Level Toronto Center
03:54PM 42.9833 -82.6833 260° West 360 414 35,800 -600 Descending Toronto Center
03:55PM 42.9833 -82.8167 270° West 360 414 34,900 -900 Descending Toronto Center
03:56PM 42.9833 -82.9833 270° West 370 426 34,100 -900 Descending Toronto Center
03:57PM 42.9833 -83.1167 270° West 370 426 33,200 -1,020 Descending Toronto Center
03:58PM 42.9667 -83.2500 260° West 380 437 32,100 -600 Descending Toronto Center
03:59PM 42.9667 -83.4000 270° West 380 437 32,000 -60 Descending Toronto Center
04:00PM 42.9719 -83.5597 273° West 383 441 32,000  Level Cleveland Center
04:01PM 42.9661 -83.7014 267° West 383 441 32,000  Level Cleveland Center
04:02PM 42.9564 -83.8286 264° West 383 441 32,000  Level Cleveland Center
04:03PM 42.9439 -83.9728 263° West 383 441 32,000  Level Cleveland Center
04:04PM 42.9314 -84.1139 263° West 383 441 32,000  Level Cleveland Center
04:06PM 42.9097 -84.3267 262° West 383 441 32,000  Level Chicago Center
04:07PM 42.8950 -84.4722 262° West 387 445 32,000  Level Chicago Center
04:08PM 42.8769 -84.6458 262° West 386 444 32,000  Level Chicago Center
04:09PM 42.8622 -84.7922 262° West 389 448 32,000  Level Chicago Center
04:10PM 42.8475 -84.9378 262° West 389 448 32,000 -60 Level Chicago Center
04:11PM 42.8311 -85.0856 261° West 392 451 31,900 -600 Descending Chicago Center
04:12PM 42.8147 -85.2342 261° West 395 455 30,800 -1,140 Descending Chicago Center
04:13PM 42.7989 -85.3797 262° West 392 451 29,600 -1,320 Descending Chicago Center
04:14PM 42.7817 -85.5258 261° West 391 450 28,100 -1,620 Descending Chicago Center
04:15PM 42.7519 -85.6908 256° West 376 433 26,300 -1,680 Descending Chicago Center
04:16PM 42.7269 -85.8272 256° West 371 427 24,700 -1,500 Descending Chicago Center
04:17PM 42.7031 -85.9592 256° West 362 417 23,200 -1,440 Descending Chicago Center
04:18PM 42.6794 -86.0875 256° West 352 405 21,700 -1,440 Descending Chicago Center
04:19PM 42.6569 -86.2125 256° West 342 394 20,300 -840 Descending Chicago Center
04:20PM 42.6333 -86.3378 256° West 342 394 20,000 -300 Descending Chicago Center
04:21PM 42.6103 -86.4606 256° West 336 387 19,700 -1,380 Descending Chicago Center
04:22PM 42.5814 -86.6094 255° West 339 390 17,200 -2,280 Descending Chicago Center
04:23PM 42.5592 -86.7328 256° West 336 387 15,000 -2,040 Descending Chicago Center
04:24PM 42.5275 -86.8456 249° West 322 371 13,100 -1,680 Descending Chicago Center
04:25PM 42.4989 -86.9550 251° West 310 357 11,600 -1,500 Descending Chicago Center
04:26PM 42.4689 -87.0600 249° West 302 348 10,100 -780 Descending Chicago Center
04:28PM 42.4394 -87.1664 249° West 302 348 10,000 -60 Descending Chicago Center
04:29PM 42.4050 -87.2933 250° West 302 348 10,000  Level Chicago Center
04:30PM 42.3786 -87.3908 250° West 281 323 10,000  Level Chicago Center
04:31PM 42.3528 -87.4833 249° West 279 321 10,000  Level Chicago Center
04:32PM 42.2967 -87.5781 231° Southwest 281 323 10,000  Level Chicago Center
04:33PM 42.2347 -87.6458 219° Southwest 286 329 10,000 -120 Level Chicago Center
04:34PM 42.1711 -87.7111 217° Southwest 290 334 9,800 -600 Descending Chicago Center
04:35PM 42.1167 -87.7667 217° Southwest 281 323 9,000 -480 Descending Chicago TRACON
04:36PM 42.0500 -87.8000 200° South 282 325 9,000 -300 Level Chicago TRACON
04:36PM 41.9833 -87.8500 209° Southwest 309 356 8,500 -780 Descending Chicago TRACON
04:38PM 41.9167 -87.9000 209° Southwest 276 318 7,500 -1,200 Descending Chicago TRACON
04:38PM 41.8500 -87.9333 200° South 234 269 6,100 -1,560 Descending Chicago TRACON
04:39PM 41.8281 -87.9506 210° Southwest 242 278 5,400 -780 Descending Chicago Center
04:40PM 41.7681 -87.9789 199° South 236 272 5,000 -480 Descending Chicago Center
04:41PM 41.7472 -88.0361 244° Southwest 209 241 4,500 -540 Descending Chicago Center
04:42PM 41.7783 -88.0914 307° West 198 228 4,000 -300 Descending Chicago Center
04:43PM 41.8231 -88.0536 32° Northeast 178 205 4,000 -360 Level Chicago Center
04:44PM 41.8578 -88.0119 42° Northeast 171 197 3,300 -840 Descending Chicago Center
04:45PM 41.8833 -88.0000 19° North 159 183 2,800 -1,020 Descending Chicago TRACON
04:46PM 41.9167 -87.9500 48° Northeast 156 180 1,900 -840 Descending Chicago TRACON
04:47PM 41.9333 -87.9167 56° Northeast 129 148 1,200 -720 Descending Chicago TRACON
04:49PM 41.9667 -87.9000 23° Northeast  Level FlightAware Approximate